This is the latest recevied weather packets stored in our database for station/object CE4ERM-13. If no packets are shown the sender has not sent any weather packets the latest 10 day(s).
| Time | Temp. | Humidity | Pressure | Rain* | Wind** | Luminosity | Snow |
|---|---|---|---|---|---|---|---|
| 1777595919 | 22.78° C | 43% | 1017.8 hPa | - | - | - | - |
| 1777595816 | 20° C | 56% | 1017.5 hPa | - | - | - | - |
| 1777595216 | 20° C | 56% | 1016.8 hPa | - | - | - | - |
| 1777594616 | 21.11° C | 52% | 1017.7 hPa | - | - | - | - |
| 1777594015 | 20.56° C | 54% | 1015.4 hPa | - | - | - | - |
| 1777593780 | 22.78° C | 42% | 1017.4 hPa | - | - | - | - |
| 1777593415 | 20.56° C | 55% | 1016.4 hPa | - | - | - | - |
| 1777593180 | 22.78° C | 43% | 1016.9 hPa | - | - | - | - |
| 1777592815 | 20.56° C | 53% | 1015.8 hPa | - | - | - | - |
| 1777592580 | 23.33° C | 43% | 1016 hPa | - | - | - | - |
| 1777592214 | 20.56° C | 54% | 1016.9 hPa | - | - | - | - |
| 1777591014 | 21.11° C | 52% | 1016.4 hPa | - | - | - | - |
| 1777590414 | 21.11° C | 53% | 1014.9 hPa | - | - | - | - |
| 1777590185 | 23.33° C | 43% | 1015.8 hPa | - | - | - | - |
| 1777590179 | 23.33° C | 43% | 1015.8 hPa | - | - | - | - |
| 1777589813 | 21.11° C | 52% | 1015.4 hPa | - | - | - | - |
| 1777589213 | 21.67° C | 51% | 1015.1 hPa | - | - | - | - |
| 1777588613 | 22.22° C | 49% | 1013.3 hPa | - | - | - | - |
| 1777588075 | 22.22° C | 49% | 1014.7 hPa | - | - | - | - |
| 1777588013 | 22.22° C | 49% | 1014.7 hPa | - | - | - | - |
| 1777587411 | 23.33° C | 46% | 1014 hPa | - | - | - | - |
| 1777587177 | 23.89° C | 42% | 1016 hPa | - | - | - | - |
| 1777586810 | 23.89° C | 45% | 1012.8 hPa | - | - | - | - |
| 1777586577 | 23.89° C | 42% | 1016.8 hPa | - | - | - | - |
| 1777586210 | 24.44° C | 44% | 1012.4 hPa | - | - | - | - |
* Rain since midnight (hover to see other rain measurements)
** Current wind speed in m/s (hover to see current wind gust speed)